createdAt,value
2017-08-11T00:01:55.625Z,99.90
2017-08-11T00:04:25.990Z,99.90
2017-08-11T00:06:55.641Z,99.90
2017-08-11T00:09:25.117Z,99.90
2017-08-11T00:11:54.982Z,99.90
2017-08-11T00:14:25.353Z,99.90
2017-08-11T00:16:55.262Z,99.90
2017-08-11T00:19:25.645Z,99.90
2017-08-11T00:21:55.878Z,99.90
2017-08-11T00:24:26.721Z,99.90
2017-08-11T00:26:57.385Z,99.90
2017-08-11T00:29:27.652Z,99.90
2017-08-11T00:31:57.830Z,99.90
2017-08-11T00:34:27.758Z,99.90
2017-08-11T00:36:57.456Z,99.90
2017-08-11T00:39:27.679Z,99.90
2017-08-11T00:41:57.650Z,99.90
2017-08-11T00:44:27.309Z,99.90
2017-08-11T00:46:57.078Z,99.90
2017-08-11T00:49:27.781Z,99.90
2017-08-11T00:51:57.830Z,99.90
2017-08-11T00:54:27.544Z,99.90
2017-08-11T00:56:57.321Z,99.90
2017-08-11T00:59:26.963Z,99.90
2017-08-11T01:01:56.993Z,99.90
2017-08-11T01:04:26.729Z,99.90
2017-08-11T01:06:56.958Z,99.90
2017-08-11T01:09:26.571Z,99.90
2017-08-11T01:11:56.794Z,99.90
2017-08-11T01:14:27.070Z,99.90
2017-08-11T01:16:56.966Z,99.90
2017-08-11T01:19:27.305Z,99.90
2017-08-11T01:21:57.795Z,99.90
2017-08-11T01:24:27.445Z,99.90
2017-08-11T01:26:57.519Z,99.90
2017-08-11T01:29:27.449Z,99.90
2017-08-11T01:31:57.073Z,99.90
2017-08-11T01:34:27.726Z,99.90
2017-08-11T01:37:02.716Z,99.90
2017-08-11T01:39:32.918Z,99.90
2017-08-11T01:44:42.033Z,99.90
2017-08-11T01:47:11.923Z,99.90
2017-08-11T01:49:41.717Z,99.90
2017-08-11T01:52:11.845Z,99.90
2017-08-11T01:54:44.028Z,99.90
2017-08-11T01:57:13.406Z,99.90
2017-08-11T01:59:43.154Z,99.90
2017-08-11T02:02:13.522Z,99.90
2017-08-11T02:04:43.414Z,99.90
2017-08-11T02:07:13.014Z,99.90
2017-08-11T02:09:43.262Z,99.90
2017-08-11T02:12:14.869Z,99.90
2017-08-11T02:14:44.353Z,99.90
2017-08-11T02:17:14.109Z,99.90
2017-08-11T02:19:43.854Z,99.90
2017-08-11T02:22:13.463Z,99.90
2017-08-11T02:24:43.194Z,99.90
2017-08-11T02:27:12.986Z,99.90
2017-08-11T02:29:42.597Z,99.90
2017-08-11T02:32:12.213Z,99.90
2017-08-11T02:34:42.630Z,99.90
2017-08-11T02:37:12.197Z,99.90
2017-08-11T02:39:42.257Z,99.90
2017-08-11T02:42:20.997Z,99.90
2017-08-11T02:44:51.290Z,99.90
2017-08-11T02:47:20.780Z,99.90
2017-08-11T02:49:51.459Z,99.90
2017-08-11T02:52:21.213Z,99.90
2017-08-11T02:54:50.830Z,99.90
2017-08-11T02:57:20.465Z,99.90
2017-08-11T02:59:50.037Z,99.90
2017-08-11T03:02:20.058Z,99.90
2017-08-11T03:04:50.145Z,99.90
2017-08-11T03:07:20.857Z,99.90
2017-08-11T03:09:51.245Z,99.90
2017-08-11T03:12:24.617Z,99.90
2017-08-11T03:14:54.410Z,99.90
2017-08-11T03:17:24.809Z,99.90
2017-08-11T03:19:54.729Z,99.90
2017-08-11T03:22:24.497Z,99.90
2017-08-11T03:24:54.105Z,99.90
2017-08-11T03:27:23.865Z,99.90
2017-08-11T03:29:54.085Z,99.90
2017-08-11T03:32:24.290Z,99.90
2017-08-11T03:34:54.405Z,99.90
2017-08-11T03:37:23.825Z,99.90
2017-08-11T03:39:54.050Z,99.90
2017-08-11T03:42:24.574Z,99.90
2017-08-11T03:44:54.813Z,99.90
2017-08-11T03:47:24.410Z,99.90
2017-08-11T03:49:54.633Z,99.90
2017-08-11T03:52:23.977Z,99.90
2017-08-11T03:54:53.546Z,99.90
2017-08-11T03:57:23.105Z,99.90
2017-08-11T03:59:52.746Z,99.90
2017-08-11T04:02:23.297Z,99.90
2017-08-11T04:04:53.402Z,99.20
2017-08-11T04:07:24.219Z,99.90
2017-08-11T04:09:54.797Z,99.90
2017-08-11T04:12:27.697Z,99.90
2017-08-11T04:15:16.874Z,99.90
2017-08-11T04:17:51.499Z,99.90
2017-08-11T04:20:20.962Z,99.40
2017-08-11T04:22:51.198Z,99.90
2017-08-11T04:25:22.185Z,98.20
2017-08-11T04:27:52.251Z,98.20
2017-08-11T04:30:30.874Z,97.00
2017-08-11T04:33:02.621Z,95.90
2017-08-11T04:35:33.050Z,96.90
2017-08-11T04:38:03.401Z,97.50
2017-08-11T04:40:34.541Z,93.40
2017-08-11T04:43:05.869Z,93.30
2017-08-11T04:45:35.941Z,91.80
2017-08-11T04:48:09.658Z,91.70
2017-08-11T04:50:41.921Z,94.20
2017-08-11T04:53:11.830Z,93.40
2017-08-11T04:55:42.505Z,92.70
2017-08-11T04:58:12.676Z,93.30
2017-08-11T05:00:42.366Z,94.10
2017-08-11T05:03:13.042Z,96.70
2017-08-11T05:05:42.786Z,96.00
2017-08-11T05:08:12.529Z,95.60
2017-08-11T05:10:42.352Z,95.50
2017-08-11T05:13:11.966Z,95.20
2017-08-11T05:15:42.570Z,94.20
2017-08-11T05:18:17.209Z,92.40
2017-08-11T05:20:46.724Z,92.30
2017-08-11T05:23:16.187Z,93.10
2017-08-11T05:25:46.406Z,93.70
2017-08-11T05:28:16.638Z,94.60
2017-08-11T05:30:46.854Z,95.10
2017-08-11T05:33:16.939Z,92.70
2017-08-11T05:35:47.049Z,92.70
2017-08-11T05:38:16.918Z,91.00
2017-08-11T05:40:46.522Z,91.10
2017-08-11T05:43:16.598Z,91.50
2017-08-11T05:45:46.700Z,88.40
2017-08-11T05:48:17.305Z,89.70
2017-08-11T05:50:46.918Z,90.30
2017-08-11T05:53:16.733Z,93.30
2017-08-11T05:55:46.318Z,92.80
2017-08-11T05:58:16.234Z,92.50
2017-08-11T06:00:50.173Z,90.50
2017-08-11T06:03:20.153Z,90.00
2017-08-11T06:05:50.538Z,89.60
2017-08-11T06:08:21.672Z,87.90
2017-08-11T06:10:51.592Z,87.80
2017-08-11T06:13:21.938Z,88.20
2017-08-11T06:15:52.414Z,86.10
2017-08-11T06:18:22.173Z,85.10
2017-08-11T06:20:51.495Z,84.50
2017-08-11T06:23:21.530Z,84.00
2017-08-11T06:25:51.133Z,83.40
2017-08-11T06:28:20.741Z,83.40
2017-08-11T06:30:54.902Z,83.30
2017-08-11T06:33:24.597Z,83.30
2017-08-11T06:35:54.345Z,83.80
2017-08-11T06:38:23.950Z,84.10
2017-08-11T06:40:54.169Z,82.60
2017-08-11T06:43:24.009Z,81.80
2017-08-11T06:45:53.838Z,78.90
2017-08-11T06:48:23.832Z,77.80
2017-08-11T06:50:53.833Z,78.80
2017-08-11T06:53:24.334Z,78.80
2017-08-11T06:55:53.969Z,77.90
2017-08-11T06:58:24.330Z,76.00
2017-08-11T07:00:54.865Z,74.70
2017-08-11T07:03:25.095Z,76.20
2017-08-11T07:05:55.009Z,77.40
2017-08-11T07:08:24.614Z,75.80
2017-08-11T07:10:55.140Z,74.20
2017-08-11T07:13:24.757Z,73.40
2017-08-11T07:15:54.678Z,73.20
2017-08-11T07:18:24.453Z,71.50
2017-08-11T07:20:55.121Z,72.30
2017-08-11T07:23:25.638Z,71.50
2017-08-11T07:25:55.403Z,72.10
2017-08-11T07:28:25.167Z,72.00
2017-08-11T07:30:55.702Z,72.90
2017-08-11T07:33:25.310Z,72.70
2017-08-11T07:35:55.542Z,71.80
2017-08-11T07:38:25.302Z,73.60
2017-08-11T07:40:54.705Z,72.50
2017-08-11T07:43:24.350Z,72.90
2017-08-11T07:45:54.398Z,73.60
2017-08-11T07:48:24.618Z,74.00
2017-08-11T07:50:57.074Z,75.50
2017-08-11T07:53:26.803Z,74.90
2017-08-11T07:55:56.714Z,75.40
2017-08-11T07:58:26.385Z,76.90
2017-08-11T08:01:00.672Z,77.70
2017-08-11T08:03:30.213Z,78.70
2017-08-11T08:06:00.662Z,78.10
2017-08-11T08:08:30.376Z,78.70
2017-08-11T08:11:00.553Z,79.80
2017-08-11T08:13:30.127Z,79.20
2017-08-11T08:15:59.870Z,79.00
2017-08-11T08:18:30.238Z,78.70
2017-08-11T08:21:00.460Z,76.90
2017-08-11T08:23:30.999Z,74.70
2017-08-11T08:26:00.917Z,75.30
2017-08-11T08:28:31.254Z,74.80
2017-08-11T08:31:01.778Z,74.70
2017-08-11T08:33:32.362Z,73.50
2017-08-11T08:36:02.718Z,73.50
2017-08-11T08:38:37.709Z,75.50
2017-08-11T08:41:08.073Z,75.00
2017-08-11T08:43:38.607Z,75.10
2017-08-11T08:46:09.130Z,78.50
2017-08-11T08:48:38.906Z,81.40
2017-08-11T08:51:08.824Z,79.20
2017-08-11T08:53:38.142Z,81.00
2017-08-11T08:56:08.194Z,82.60
2017-08-11T08:58:38.714Z,84.90
2017-08-11T09:01:09.806Z,84.20
2017-08-11T09:03:40.254Z,85.80
2017-08-11T09:06:14.886Z,86.20
2017-08-11T09:08:44.218Z,88.30
2017-08-11T09:11:14.129Z,86.80
2017-08-11T09:13:46.778Z,87.40
2017-08-11T09:16:16.731Z,88.60
2017-08-11T09:18:46.720Z,87.50
2017-08-11T09:21:16.413Z,87.10
2017-08-11T09:23:46.321Z,84.00
2017-08-11T09:26:36.662Z,84.60
2017-08-11T09:29:17.394Z,84.70
2017-08-11T09:31:59.225Z,83.90
2017-08-11T09:34:54.114Z,82.50
2017-08-11T09:37:23.950Z,79.30
2017-08-11T09:39:53.869Z,81.70
2017-08-11T09:42:23.462Z,81.60
2017-08-11T09:44:55.382Z,82.40
2017-08-11T09:47:25.954Z,82.30
2017-08-11T09:49:55.982Z,77.50
2017-08-11T09:52:25.538Z,73.90
2017-08-11T09:54:55.425Z,71.80
2017-08-11T09:57:25.417Z,69.40
2017-08-11T09:59:55.490Z,67.40
2017-08-11T10:02:25.245Z,66.50
2017-08-11T10:04:55.172Z,66.60
2017-08-11T10:07:25.538Z,59.90
2017-08-11T10:09:55.774Z,59.80
2017-08-11T10:12:25.521Z,59.80
2017-08-11T10:14:56.208Z,56.20
2017-08-11T10:17:25.678Z,56.20
2017-08-11T10:19:56.185Z,54.80
2017-08-11T10:22:27.021Z,53.20
2017-08-11T10:24:56.657Z,54.80
2017-08-11T10:27:27.325Z,54.00
2017-08-11T10:29:57.845Z,51.40
2017-08-11T10:32:28.390Z,52.50
2017-08-11T10:34:59.062Z,52.40
2017-08-11T10:37:28.993Z,52.20
2017-08-11T10:39:58.714Z,50.80
2017-08-11T10:42:28.817Z,51.60
2017-08-11T10:44:58.282Z,52.70
2017-08-11T10:47:28.027Z,49.80
2017-08-11T10:49:57.942Z,49.90
2017-08-11T10:52:28.482Z,50.00
2017-08-11T10:54:59.798Z,50.70
2017-08-11T10:57:29.687Z,51.10
2017-08-11T10:59:59.157Z,47.70
2017-08-11T11:02:29.835Z,48.80
2017-08-11T11:04:59.582Z,48.80
2017-08-11T11:07:34.924Z,47.40
2017-08-11T11:10:14.277Z,46.80
2017-08-11T11:12:43.885Z,45.80
2017-08-11T11:15:13.545Z,45.80
2017-08-11T11:17:43.911Z,47.00
2017-08-11T11:20:14.885Z,47.50
2017-08-11T11:22:44.510Z,47.50
2017-08-11T11:25:17.592Z,48.90
2017-08-11T11:27:47.990Z,50.80
2017-08-11T11:30:17.478Z,51.90
2017-08-11T11:32:47.106Z,51.40
2017-08-11T11:35:17.325Z,50.40
2017-08-11T11:37:47.046Z,51.70
2017-08-11T11:40:16.525Z,51.70
2017-08-11T11:42:45.975Z,51.50
2017-08-11T11:45:16.749Z,50.80
2017-08-11T11:47:46.208Z,48.60
2017-08-11T11:50:16.336Z,50.00
2017-08-11T11:52:45.922Z,50.20
2017-08-11T11:55:16.498Z,49.70
2017-08-11T11:57:46.170Z,49.60
2017-08-11T12:00:30.458Z,49.00
2017-08-11T12:03:03.461Z,50.30
2017-08-11T12:05:33.493Z,49.70
2017-08-11T12:08:03.344Z,51.00
2017-08-11T12:10:33.931Z,51.30
2017-08-11T12:13:04.472Z,53.40
2017-08-11T12:15:34.611Z,51.70
2017-08-11T12:20:44.562Z,53.30
2017-08-11T12:23:15.192Z,52.80
2017-08-11T12:25:45.111Z,52.40
2017-08-11T12:28:16.726Z,52.60
2017-08-11T12:30:46.341Z,52.60
2017-08-11T12:33:16.128Z,51.90
2017-08-11T12:35:46.001Z,52.10
2017-08-11T12:38:16.382Z,53.50
2017-08-11T12:40:45.830Z,53.90
2017-08-11T12:43:16.059Z,53.30
2017-08-11T12:45:46.397Z,54.10
2017-08-11T12:48:16.041Z,54.40
2017-08-11T12:50:45.773Z,55.70
2017-08-11T12:53:15.406Z,56.90
2017-08-11T12:55:45.174Z,56.80
2017-08-11T12:58:14.925Z,55.80
2017-08-11T13:00:44.400Z,55.80
2017-08-11T13:03:14.085Z,57.00
2017-08-11T13:05:43.762Z,56.30
2017-08-11T13:08:13.674Z,55.80
2017-08-11T13:10:44.045Z,55.60
2017-08-11T13:13:14.730Z,55.50
2017-08-11T13:15:45.410Z,55.20
2017-08-11T13:18:15.029Z,54.40
2017-08-11T13:20:44.506Z,54.70
2017-08-11T13:23:14.085Z,54.80
2017-08-11T13:25:43.858Z,55.00
2017-08-11T13:28:14.517Z,55.50
2017-08-11T13:30:44.755Z,56.20
2017-08-11T13:33:14.522Z,56.30
2017-08-11T13:35:45.194Z,56.60
2017-08-11T13:38:15.478Z,57.20
2017-08-11T13:40:45.082Z,57.10
2017-08-11T13:43:15.049Z,57.00
2017-08-11T13:45:44.551Z,56.90
2017-08-11T13:48:14.465Z,56.80
2017-08-11T13:50:44.290Z,56.50
2017-08-11T13:53:13.846Z,55.40
2017-08-11T13:55:43.449Z,55.50
2017-08-11T13:58:13.214Z,56.40
2017-08-11T14:00:42.854Z,56.70
2017-08-11T14:03:12.458Z,55.60
2017-08-11T14:05:42.507Z,55.90
2017-08-11T14:08:12.713Z,56.70
2017-08-11T14:10:43.395Z,56.50
2017-08-11T14:13:13.630Z,56.50
2017-08-11T14:15:43.228Z,56.40
2017-08-11T14:18:15.141Z,56.60
2017-08-11T14:20:44.750Z,56.30
2017-08-11T14:23:20.217Z,56.30
2017-08-11T14:25:49.964Z,56.40
2017-08-11T14:28:20.194Z,56.60
2017-08-11T14:30:50.110Z,56.50
2017-08-11T14:33:20.324Z,56.60
2017-08-11T14:35:49.943Z,56.90
2017-08-11T14:38:19.826Z,57.70
2017-08-11T14:40:49.754Z,57.70
2017-08-11T14:43:19.670Z,58.00
2017-08-11T14:45:49.710Z,58.80
2017-08-11T14:48:21.090Z,58.30
2017-08-11T14:50:51.719Z,58.10
2017-08-11T14:53:21.346Z,58.50
2017-08-11T14:55:52.010Z,58.40
2017-08-11T14:58:22.102Z,58.50
2017-08-11T15:00:58.122Z,58.20
2017-08-11T15:06:04.126Z,58.30
2017-08-11T15:08:38.574Z,58.40
2017-08-11T15:11:09.352Z,58.30
2017-08-11T15:13:39.870Z,58.30
2017-08-11T15:16:10.390Z,58.40
2017-08-11T15:18:40.329Z,58.20
2017-08-11T15:21:10.142Z,57.00
2017-08-11T15:23:40.131Z,58.20
2017-08-11T15:26:10.346Z,58.00
2017-08-11T15:28:39.861Z,57.40
2017-08-11T15:31:10.197Z,58.70
2017-08-11T15:33:40.401Z,59.30
2017-08-11T15:36:11.114Z,58.10
2017-08-11T15:38:40.854Z,58.00
2017-08-11T15:41:11.078Z,58.20
2017-08-11T15:43:40.997Z,58.70
2017-08-11T15:46:11.090Z,58.50
2017-08-11T15:48:40.671Z,59.00
2017-08-11T15:51:10.441Z,59.80
2017-08-11T15:53:40.917Z,59.20
2017-08-11T15:56:10.830Z,59.60
2017-08-11T15:58:40.481Z,59.80
2017-08-11T16:01:10.554Z,59.80
2017-08-11T16:03:40.365Z,60.30
2017-08-11T16:06:10.378Z,60.10
2017-08-11T16:08:40.126Z,60.30
2017-08-11T16:11:09.914Z,60.40
2017-08-11T16:13:39.366Z,59.80
2017-08-11T16:16:08.638Z,59.60
2017-08-11T16:18:39.214Z,60.10
2017-08-11T16:21:08.838Z,60.90
2017-08-11T16:23:39.195Z,61.20
2017-08-11T16:26:08.840Z,61.20
2017-08-11T16:28:38.721Z,61.10
2017-08-11T16:31:09.674Z,60.40
2017-08-11T16:33:40.078Z,59.90
2017-08-11T16:36:17.050Z,59.80
2017-08-11T16:38:46.370Z,59.50
2017-08-11T16:41:16.729Z,59.50
2017-08-11T16:43:46.705Z,59.90
2017-08-11T16:46:17.030Z,60.10
2017-08-11T16:48:47.584Z,60.10
2017-08-11T16:51:17.342Z,59.70
2017-08-11T16:53:47.081Z,60.10
2017-08-11T16:56:17.609Z,60.10
2017-08-11T16:58:47.061Z,60.50
2017-08-11T17:01:16.662Z,60.90
2017-08-11T17:03:47.249Z,60.40
2017-08-11T17:06:17.278Z,61.50
2017-08-11T17:08:47.818Z,62.10
2017-08-11T17:11:17.591Z,62.00
2017-08-11T17:13:47.282Z,61.50
2017-08-11T17:16:17.070Z,61.80
2017-08-11T17:18:59.534Z,61.60
2017-08-11T17:21:28.943Z,61.80
2017-08-11T17:23:58.497Z,62.10
2017-08-11T17:26:28.267Z,62.50
2017-08-11T17:28:58.041Z,62.70
2017-08-11T17:31:27.694Z,63.40
2017-08-11T17:33:57.550Z,63.30
2017-08-11T17:36:27.508Z,63.80
2017-08-11T17:38:57.073Z,63.60
2017-08-11T17:41:27.295Z,64.00
2017-08-11T17:43:56.761Z,64.80
2017-08-11T17:46:26.386Z,64.80
2017-08-11T17:48:56.429Z,64.70
2017-08-11T17:51:26.954Z,64.70
2017-08-11T17:53:57.787Z,65.20
2017-08-11T17:56:27.718Z,65.80
2017-08-11T17:58:57.319Z,65.90
2017-08-11T18:01:26.935Z,66.10
2017-08-11T18:03:56.958Z,66.00
2017-08-11T18:06:26.774Z,66.20
2017-08-11T18:08:56.437Z,66.70
2017-08-11T18:11:26.758Z,66.60
2017-08-11T18:13:57.730Z,66.50
2017-08-11T18:16:27.945Z,66.80
2017-08-11T18:18:58.785Z,67.70
2017-08-11T18:21:28.401Z,67.00
2017-08-11T18:23:58.006Z,67.30
2017-08-11T18:26:29.327Z,67.10
2017-08-11T18:28:59.526Z,67.10
2017-08-11T18:31:29.718Z,67.70
2017-08-11T18:33:59.404Z,67.30
2017-08-11T18:36:29.122Z,66.80
2017-08-11T18:38:59.186Z,67.50
2017-08-11T18:41:29.111Z,67.10
2017-08-11T18:43:59.491Z,67.00
2017-08-11T18:46:29.263Z,66.40
2017-08-11T18:48:59.464Z,66.80
2017-08-11T18:51:29.242Z,66.40
2017-08-11T18:53:59.461Z,66.70
2017-08-11T18:56:30.442Z,66.40
2017-08-11T18:59:01.117Z,66.30
2017-08-11T19:01:30.912Z,65.30
2017-08-11T19:04:01.083Z,65.70
2017-08-11T19:06:30.561Z,65.60
2017-08-11T19:09:01.042Z,64.50
2017-08-11T19:11:31.017Z,64.50
2017-08-11T19:14:00.786Z,63.90
2017-08-11T19:16:31.446Z,64.60
2017-08-11T19:19:02.292Z,63.60
2017-08-11T19:21:31.938Z,64.20
2017-08-11T19:24:01.696Z,63.90
2017-08-11T19:26:32.470Z,63.70
2017-08-11T19:29:02.261Z,63.60
2017-08-11T19:31:33.101Z,64.10
2017-08-11T19:34:03.481Z,60.60
2017-08-11T19:36:32.947Z,61.20
2017-08-11T19:39:03.050Z,60.00
2017-08-11T19:41:32.877Z,60.90
2017-08-11T19:44:03.087Z,61.20
2017-08-11T19:46:32.900Z,61.40
2017-08-11T19:49:10.439Z,61.80
2017-08-11T19:51:49.049Z,62.20
2017-08-11T19:54:18.938Z,62.90
2017-08-11T19:56:48.587Z,62.60
2017-08-11T19:59:18.258Z,62.60
2017-08-11T20:01:48.525Z,62.50
2017-08-11T20:04:18.282Z,62.50
2017-08-11T20:06:48.355Z,62.50
2017-08-11T20:09:18.902Z,63.40
2017-08-11T20:11:49.075Z,63.40
2017-08-11T20:14:18.370Z,63.50
2017-08-11T20:16:48.766Z,63.90
2017-08-11T20:19:18.541Z,64.30
2017-08-11T20:21:48.498Z,64.80
2017-08-11T20:24:19.202Z,65.00
2017-08-11T20:26:48.657Z,65.50
2017-08-11T20:29:18.222Z,65.50
2017-08-11T20:31:48.270Z,66.20
2017-08-11T20:34:18.649Z,66.60
2017-08-11T20:36:48.401Z,66.70
2017-08-11T20:39:18.005Z,66.70
2017-08-11T20:41:47.628Z,67.00
2017-08-11T20:44:17.850Z,67.00
2017-08-11T20:46:48.125Z,66.70
2017-08-11T20:49:17.734Z,66.90
2017-08-11T20:51:47.538Z,66.50
2017-08-11T20:54:17.941Z,66.00
2017-08-11T20:56:47.478Z,66.00
2017-08-11T20:59:18.114Z,66.10
2017-08-11T21:01:47.845Z,66.10
2017-08-11T21:04:17.501Z,65.90
2017-08-11T21:06:47.870Z,64.90
2017-08-11T21:09:18.538Z,66.10
2017-08-11T21:11:48.149Z,66.00
2017-08-11T21:14:18.830Z,64.80
2017-08-11T21:16:49.521Z,65.20
2017-08-11T21:19:19.355Z,64.90
2017-08-11T21:21:49.958Z,65.00
2017-08-11T21:24:19.566Z,64.60
2017-08-11T21:26:49.513Z,63.60
2017-08-11T21:29:19.356Z,63.50
2017-08-11T21:31:51.777Z,63.50
2017-08-11T21:34:21.542Z,63.40
2017-08-11T21:36:51.354Z,63.40
2017-08-11T21:39:21.134Z,63.90
2017-08-11T21:41:51.735Z,64.20
2017-08-11T21:44:21.345Z,64.00
2017-08-11T21:46:51.272Z,64.40
2017-08-11T21:49:21.204Z,64.50
2017-08-11T21:51:51.247Z,64.30
2017-08-11T21:54:24.357Z,64.00
2017-08-11T21:56:54.010Z,63.80
2017-08-11T21:59:25.281Z,64.10
2017-08-11T22:01:55.649Z,64.60
2017-08-11T22:04:25.448Z,64.50
2017-08-11T22:06:55.039Z,64.70
2017-08-11T22:09:25.024Z,64.80
2017-08-11T22:11:54.710Z,64.90
2017-08-11T22:14:24.684Z,65.20
2017-08-11T22:16:54.461Z,64.70
2017-08-11T22:19:25.091Z,65.20
2017-08-11T22:21:55.458Z,64.70
2017-08-11T22:24:32.250Z,65.10
2017-08-11T22:27:01.944Z,65.00
2017-08-11T22:29:32.240Z,65.40
2017-08-11T22:32:02.029Z,65.70
2017-08-11T22:34:31.641Z,65.50
2017-08-11T22:37:02.324Z,65.50
2017-08-11T22:39:32.098Z,65.90
2017-08-11T22:42:01.821Z,65.70
2017-08-11T22:44:43.081Z,65.40
2017-08-11T22:47:14.365Z,65.40
2017-08-11T22:49:44.884Z,65.50
2017-08-11T22:52:14.992Z,65.50
2017-08-11T22:54:44.786Z,65.60
2017-08-11T22:57:14.706Z,65.40
2017-08-11T22:59:44.917Z,66.40
2017-08-11T23:02:15.930Z,65.60
2017-08-11T23:04:45.717Z,66.00
2017-08-11T23:07:16.363Z,66.90
2017-08-11T23:09:45.818Z,66.10
2017-08-11T23:12:21.390Z,66.00
2017-08-11T23:14:50.797Z,65.90
2017-08-11T23:17:21.088Z,65.80
2017-08-11T23:19:51.222Z,65.60
2017-08-11T23:22:21.722Z,65.90
2017-08-11T23:24:51.773Z,65.40
2017-08-11T23:27:22.138Z,65.20
2017-08-11T23:29:52.362Z,64.50
2017-08-11T23:32:22.129Z,65.00
2017-08-11T23:34:52.810Z,65.30
2017-08-11T23:37:23.479Z,65.10
2017-08-11T23:39:53.558Z,65.40
2017-08-11T23:42:23.010Z,65.60
2017-08-11T23:44:52.789Z,66.30
2017-08-11T23:47:23.050Z,66.50
2017-08-11T23:49:53.069Z,66.30
2017-08-11T23:52:22.669Z,66.20
2017-08-11T23:54:52.857Z,66.40
2017-08-11T23:57:22.290Z,66.50
2017-08-11T23:59:52.896Z,66.40
